• Join FlightAware (Why Join?)
  • Login
  • US Flag 
05:56PM EDT


 

Airport Tracker/Info


-or-


 

Live Flight TrackerFlight Track Log ✈ AWE3828 ✈ 29-Apr-2013 ✈ KBNA - KCLT

Flight Track Log - Related Links

Times and Time Zones

All times are in EDT time to prevent confusion due to time zone crossing. See the AWE3828 flight status page for this flight to view local times or setup timezone preferences in your user account.

Time Position Orientation Groundspeed Altitude Reporting Facility
EDT Latitude Longitude Course Direction KTS MPH feet Rate Location/Type
10:37AM 36.1500 -86.6333 90° East 168 193 2,000  Level Nashville TRACON
10:38AM 36.1667 -86.5667 73° East 233 268 4,300 2,220 Climbing Nashville TRACON
10:39AM 36.0737 -86.3028 99° East  Level Estimated
10:39AM 36.1500 -86.4833 104° East 279 321 6,700  Level Nashville TRACON
10:40AM 36.0565 -86.1777 90° East  Level Estimated
10:40AM 36.1322 -86.3814 102° East 317 365 9,000  Level Memphis Center
10:41AM 36.0392 -86.0528 102° East  Level Estimated
10:41AM 36.1103 -86.2797 105° East 317 365 11,100  Level Memphis Center
10:42AM 36.0218 -85.9278 90° East  Level Estimated
10:42AM 36.0831 -86.1528 105° East 324 373 12,400  Level Memphis Center
10:43AM 36.0661 -86.0253 99° East 358 412 14,000 1,560 Climbing Memphis Center
10:45AM 36.0481 -85.7775 95° East 371 427 17,200 1,440 Climbing Atlanta Center
10:46AM 36.0394 -85.6436 95° East 376 433 18,400 1,200 Climbing Atlanta Center
10:47AM 36.0308 -85.5125 95° East 382 440 19,700 1,260 Climbing Atlanta Center
10:48AM 36.0197 -85.3764 96° East 387 445 21,000 1,140 Climbing Atlanta Center
10:49AM 36.0108 -85.2400 95° East 392 451 22,000 960 Climbing Atlanta Center
10:50AM 35.9994 -85.1039 96° East 397 457 23,000 900 Climbing Atlanta Center
10:51AM 35.9942 -84.9908 93° East 397 457 23,800 840 Climbing Atlanta Center
10:52AM 35.9806 -84.8342 96° East 407 468 24,700 600 Climbing Atlanta Center
10:53AM 35.9689 -84.6903 96° East 412 474 25,000 120 Climbing Atlanta Center
10:54AM 35.9572 -84.5414 95° East 422 486 25,000  Level Atlanta Center
10:55AM 35.9431 -84.3875 96° East 437 503 25,000  Level Atlanta Center
10:56AM 35.9331 -84.2311 94° East 445 512 25,000  Level Atlanta Center
10:57AM 35.9186 -84.0722 96° East 455 524 25,000  Level Atlanta Center
10:58AM 35.9058 -83.9131 96° East 460 529 25,000  Level Atlanta Center
10:59AM 35.9014 -83.7542 92° East 460 529 25,000  Level Atlanta Center
11:00AM 35.8989 -83.5928 91° East 460 529 25,000  Level Atlanta Center
11:01AM 35.8983 -83.4311 90° East 460 529 25,000  Level Atlanta Center
11:02AM 35.8911 -83.2697 93° East 460 529 25,000 -240 Level Atlanta Center
11:03AM 35.8878 -83.1031 91° East 469 540 24,600 -540 Descending Atlanta Center
11:04AM 35.8844 -82.9469 91° East 468 539 24,000 -300 Descending Atlanta Center
11:05AM 35.8811 -82.8164 92° East 410 472 24,000  Level Atlanta Center
11:06AM 35.8797 -82.6908 91° East 372 428 24,000  Level Atlanta Center
11:07AM 35.8742 -82.5625 93° East 367 422 24,000 -60 Level Atlanta Center
11:08AM 35.8703 -82.4294 92° East 367 422 23,900 -1,020 Descending Atlanta Center
11:09AM 35.8664 -82.2783 92° East 413 475 22,000 -2,100 Descending Atlanta Center
11:10AM 35.8639 -82.1222 91° East 449 517 19,800 -2,220 Descending Atlanta Center
11:11AM 35.8486 -81.9533 96° East 454 522 17,600 -2,160 Descending Atlanta Center
11:12AM 35.7694 -81.8378 130° Southeast 424 488 15,500 -2,040 Descending Atlanta Center
11:13AM 35.6964 -81.7244 128° Southeast 424 488 13,600 -2,040 Descending Atlanta Center
11:13AM 35.6556 -81.6619 129° Southeast 411 473 12,400 -1,500 Descending Atlanta Center
11:14AM 35.6297 -81.6242 130° Southeast 410 472 12,100 -600 Descending Atlanta Center
11:14AM 35.6147 -81.5992 126° Southeast 324 373 12,000 -120 Descending Atlanta Center
11:15AM 35.5739 -81.5417 131° Southeast 346 398 12,000  Level Atlanta Center
11:15AM 35.5567 -81.5117 125° Southeast 301 346 12,000  Level Atlanta Center
11:16AM 35.5200 -81.4564 129° Southeast 315 362 12,000 -180 Level Atlanta Center
11:17AM 35.4639 -81.3717 129° Southeast 315 362 11,800 -780 Descending Atlanta Center
11:17AM 35.4508 -81.3492 125° Southeast 317 365 11,000 -2,520 Descending Atlanta Center
11:18AM 35.4408 -81.2728 99° East 301 346 9,300 -2,700 Descending Atlanta Center
11:18AM 35.4483 -81.2369 76° East 313 360 8,300 -2,400 Descending Atlanta Center
11:19AM 35.4553 -81.1706 83° East 291 335 6,900 -2,100 Descending Atlanta Center
11:19AM 35.4608 -81.1372 78° East 292 336 6,200 -900 Descending Atlanta Center
11:20AM 35.4531 -81.0736 99° East 291 335 6,000 -240 Descending Atlanta Center
11:20AM 35.4481 -81.0406 101° East 286 329 6,000 -540 Level Atlanta Center
11:21AM 35.4422 -80.9772 96° East 291 335 5,500 -1,380 Descending Atlanta Center
11:21AM 35.4411 -80.9364 92° East 288 331 4,500 -1,440 Descending Atlanta Center
11:22AM 35.4336 -80.8806 99° East 291 335 4,100 -540 Descending Atlanta Center
11:22AM 35.4264 -80.8478 105° East 251 289 4,000 -120 Descending Atlanta Center
11:23AM 35.4044 -80.8106 126° Southeast 253 291 4,000  Level Atlanta Center
11:23AM 35.3850 -80.7831 131° Southeast 218 251 4,000  Level Atlanta Center
11:24AM 35.3369 -80.7775 175° South 170 196 4,000  Level Atlanta Center